Time;durP1;ratioP1;P1;durP2;ratioP2;P2;SDS_P1;SDS_P2;PMS_P1;PMS_P2;Temp;Humidity;BMP_temperature;BMP_pressure;BME280_temperature;BME280_humidity;BME280_pressure;Samples;Min_cycle;Max_cycle;Signal;HPM_P1;HPM_P2
2021/01/18 08:20:22;;;;;;;48.90;18.83;;;;;;;-0.47;58.16;100505.63;5079263;28;20704;-61
2021/01/18 08:22:47;;;;;;;38.43;17.63;;;;;;;-0.32;56.42;100508.34;5059911;28;20030;-64
2021/01/18 08:25:13;;;;;;;37.10;17.17;;;;;;;-0.08;55.31;100508.06;5059710;28;20036;-67
2021/01/18 08:27:47;;;;;;;39.53;18.13;;;;;;;-0.15;55.51;100512.72;5059865;28;20040;-66
2021/01/18 08:30:21;;;;;;;42.55;18.33;;;;;;;0.20;55.63;100510.16;5059751;28;20108;-67
2021/01/18 08:32:52;;;;;;;;;;;;;;;0.45;53.27;100521.00;5060410;28;20349;-63
2021/01/18 08:35:18;;;;;;;39.03;17.23;;;;;;;0.58;52.82;100516.84;5059629;28;19967;-67
2021/01/18 08:38:07;;;;;;;39.47;17.90;;;;;;;0.83;52.26;100513.78;5059705;28;20029;-67
2021/01/18 08:40:37;;;;;;;40.23;18.83;;;;;;;0.68;52.21;100511.13;5058189;28;20026;-67
2021/01/18 08:43:03;;;;;;;44.10;18.57;;;;;;;0.74;51.28;100510.81;5059680;28;20080;-64
2021/01/18 08:45:49;;;;;;;43.23;19.03;;;;;;;1.12;49.91;100509.63;5059370;28;20025;-67
2021/01/18 08:48:20;;;;;;;34.07;15.53;;;;;;;0.96;49.78;100496.56;5059587;28;20064;-64
2021/01/18 08:50:46;;;;;;;38.87;17.33;;;;;;;1.26;50.23;100499.28;5059176;28;20037;-63
2021/01/18 08:53:24;;;;;;;32.03;14.60;;;;;;;1.24;48.03;100503.75;5059601;28;20059;-67
2021/01/18 08:55:54;;;;;;;31.07;15.30;;;;;;;1.23;48.66;100499.44;5059192;28;20035;-67
2021/01/18 08:58:37;;;;;;;31.13;14.70;;;;;;;1.24;48.15;100497.69;5059149;28;20025;-64
2021/01/18 09:01:14;;;;;;;31.90;14.10;;;;;;;1.43;47.78;100503.56;5059293;28;20139;-64
2021/01/18 09:03:40;;;;;;;34.43;14.33;;;;;;;1.68;46.16;100499.56;5059480;28;20088;-67
2021/01/18 09:06:06;;;;;;;31.80;15.60;;;;;;;1.71;46.36;100496.78;5059010;28;20346;-64
2021/01/18 09:08:32;;;;;;;33.57;14.97;;;;;;;1.70;45.97;100493.34;5059240;28;20041;-67
2021/01/18 09:10:59;;;;;;;34.20;15.80;;;;;;;1.58;46.06;100491.44;5052856;28;20029;-64
2021/01/18 09:13:29;;;;;;;30.97;14.70;;;;;;;1.27;45.77;100493.13;5042206;28;20033;-64
2021/01/18 09:15:58;;;;;;;32.70;14.13;;;;;;;1.45;45.83;100486.06;5049045;28;20037;-64
2021/01/18 09:18:25;;;;;;;36.23;15.37;;;;;;;1.48;46.04;100491.09;5059002;28;20064;-67
2021/01/18 09:20:52;;;;;;;28.83;14.43;;;;;;;1.43;45.85;100477.47;5058785;28;20066;-67
2021/01/18 09:23:19;;;;;;;27.97;13.50;;;;;;;1.44;44.16;100462.66;5058979;28;20110;-64
2021/01/18 09:25:45;;;;;;;25.27;13.20;;;;;;;1.42;43.36;100474.94;5058551;28;20060;-64
2021/01/18 09:28:14;;;;;;;29.33;14.30;;;;;;;1.39;44.46;100475.13;5058856;28;20036;-67
2021/01/18 09:30:44;;;;;;;31.10;13.97;;;;;;;1.49;45.01;100473.69;5043606;28;20036;-67
2021/01/18 09:33:13;;;;;;;39.80;14.70;;;;;;;1.40;44.73;100472.44;5031865;28;20029;-67
2021/01/18 09:35:43;;;;;;;29.23;13.63;;;;;;;1.35;44.23;100471.00;5040957;28;20029;-67
2021/01/18 09:38:11;;;;;;;28.33;13.87;;;;;;;1.44;44.20;100479.16;5045456;28;20060;-64
2021/01/18 09:40:39;;;;;;;35.80;15.70;;;;;;;1.61;44.26;100467.75;5045187;28;20026;-64
2021/01/18 09:43:06;;;;;;;32.53;15.67;;;;;;;1.79;44.97;100479.75;5038569;28;20044;-64
2021/01/18 09:45:33;;;;;;;29.33;13.23;;;;;;;1.84;43.34;100462.06;5025030;28;20037;-64
2021/01/18 09:48:09;;;;;;;31.60;13.27;;;;;;;1.66;43.54;100459.66;5025465;28;20392;-64
2021/01/18 09:50:36;;;;;;;28.57;13.47;;;;;;;1.64;43.36;100451.91;5025050;28;20034;-64
2021/01/18 09:53:09;;;;;;;26.60;11.57;;;;;;;1.49;41.44;100447.56;5035510;28;20131;-67
2021/01/18 09:55:45;;;;;;;21.80;11.40;;;;;;;1.56;42.34;100438.47;5044811;28;20060;-67
2021/01/18 09:58:25;;;;;;;30.17;12.63;;;;;;;1.49;42.92;100437.97;5043461;28;20331;-67
2021/01/18 10:00:53;;;;;;;24.37;12.67;;;;;;;1.47;43.14;100437.22;5044717;28;20087;-64
2021/01/18 10:03:26;;;;;;;33.57;14.47;;;;;;;1.62;43.43;100432.91;5055534;28;20316;-67
2021/01/18 10:06:03;;;;;;;28.48;12.43;;;;;;;1.39;43.38;100426.38;5064625;28;20033;-67
2021/01/18 10:08:30;;;;;;;28.13;13.67;;;;;;;1.46;43.29;100422.50;5064819;28;20060;-64
2021/01/18 10:10:55;;;;;;;23.83;11.70;;;;;;;1.30;43.03;100419.06;5064418;28;20032;-67
2021/01/18 10:13:31;;;;;;;23.57;12.00;;;;;;;1.45;43.49;100397.31;5064766;28;20041;-64
2021/01/18 10:16:07;;;;;;;28.93;12.33;;;;;;;1.46;43.65;100409.44;5064598;28;20029;-64
2021/01/18 10:18:37;;;;;;;21.20;11.57;;;;;;;1.42;43.69;100401.88;5064162;28;20049;-64
2021/01/18 10:21:02;;;;;;;23.67;10.57;;;;;;;1.28;43.64;100394.84;5064028;28;20033;-64
2021/01/18 10:23:33;;;;;;;29.50;13.17;;;;;;;1.49;43.92;100395.38;5064402;28;20056;-67
2021/01/18 10:26:19;;;;;;;26.10;12.20;;;;;;;1.56;43.40;100391.47;5064034;28;20029;-64
2021/01/18 10:28:52;;;;;;;22.33;10.80;;;;;;;1.48;43.75;100391.94;5064440;28;20110;-67
2021/01/18 10:31:23;;;;;;;23.40;12.63;;;;;;;1.47;43.83;100386.78;5064423;28;20028;-68
2021/01/18 10:34:17;;;;;;;24.40;12.53;;;;;;;1.66;44.23;100381.34;5063912;28;20092;-64
2021/01/18 10:36:47;;;;;;;22.55;10.95;;;;;;;1.71;43.16;100381.91;5064326;28;20024;-68
2021/01/18 10:39:29;;;;;;;22.10;10.90;;;;;;;1.89;41.81;100370.38;5064323;28;20061;-68
2021/01/18 10:42:21;;;;;;;27.27;11.83;;;;;;;1.87;42.26;100372.25;5063033;28;20227;-64
2021/01/18 10:44:53;;;;;;;34.40;11.93;;;;;;;1.76;40.88;100364.22;5024418;28;20046;-68
2021/01/18 10:47:22;;;;;;;22.60;10.57;;;;;;;1.64;41.29;100363.16;5023118;28;20029;-64
2021/01/18 10:49:52;;;;;;;23.33;10.43;;;;;;;1.71;41.56;100358.41;5024468;28;20053;-68
2021/01/18 10:52:18;;;;;;;20.27;10.00;;;;;;;1.79;39.97;100343.13;5024221;28;20308;-68
2021/01/18 10:54:58;;;;;;;17.70;9.20;;;;;;;1.71;39.88;100346.19;5024449;28;20068;-64
2021/01/18 10:57:24;;;;;;;18.73;9.13;;;;;;;1.71;39.64;100351.44;5024217;28;20076;-68
2021/01/18 11:00:09;;;;;;;20.17;9.10;;;;;;;1.84;39.48;100351.53;5022977;28;20316;-67
2021/01/18 11:02:37;;;;;;;20.87;10.60;;;;;;;1.85;39.65;100345.38;5024266;28;20030;-64
2021/01/18 11:05:02;;;;;;;21.67;9.70;;;;;;;1.98;39.06;100345.47;5024161;28;20036;-64
2021/01/18 11:07:29;;;;;;;21.53;8.00;;;;;;;1.88;38.82;100340.81;5024291;28;20022;-68
2021/01/18 11:09:56;;;;;;;21.80;10.13;;;;;;;1.90;39.23;100332.88;5024181;28;20045;-64
2021/01/18 11:12:38;;;;;;;26.00;10.97;;;;;;;1.99;40.22;100334.94;5023795;28;20061;-64
2021/01/18 11:15:10;;;;;;;29.07;11.07;;;;;;;2.02;40.27;100333.91;5023870;28;20148;-64
2021/01/18 11:17:35;;;;;;;25.00;10.93;;;;;;;2.00;39.07;100334.00;5024042;28;20026;-65
2021/01/18 11:20:01;;;;;;;26.43;10.70;;;;;;;1.92;39.73;100336.25;5023455;28;20054;-64
2021/01/18 11:22:27;;;;;;;23.80;10.53;;;;;;;1.93;40.47;100333.53;5023936;28;20034;-64
2021/01/18 11:24:52;;;;;;;21.90;10.83;;;;;;;2.05;40.71;100334.56;5023848;28;20057;-65
2021/01/18 11:27:18;;;;;;;23.07;10.77;;;;;;;2.00;40.46;100320.94;5023950;28;20032;-64
2021/01/18 11:29:43;;;;;;;21.63;10.70;;;;;;;1.90;40.59;100318.06;5023852;28;20114;-64
2021/01/18 11:32:10;;;;;;;23.67;10.53;;;;;;;1.99;40.71;100332.31;5023553;28;20040;-68
2021/01/18 11:34:35;;;;;;;23.53;11.03;;;;;;;2.16;39.66;100324.31;5023824;28;20220;-64
2021/01/18 11:37:04;;;;;;;22.63;11.20;;;;;;;2.14;40.13;100327.97;5023529;28;20036;-68
2021/01/18 11:39:30;;;;;;;24.53;11.97;;;;;;;2.11;40.30;100321.16;5023632;28;20033;-67
2021/01/18 11:41:58;;;;;;;21.20;9.73;;;;;;;2.11;38.73;100322.94;5023428;28;20227;-64
2021/01/18 11:44:24;;;;;;;17.93;8.93;;;;;;;2.05;39.24;100311.06;5023607;28;20049;-67
2021/01/18 11:46:54;;;;;;;21.87;10.43;;;;;;;2.17;39.18;100315.56;5023263;28;20033;-65
2021/01/18 11:49:19;;;;;;;25.77;9.47;;;;;;;2.15;38.41;100314.81;5023562;28;20258;-65
2021/01/18 11:51:45;;;;;;;27.40;13.40;;;;;;;2.06;39.97;100314.50;5023142;28;20034;-68
2021/01/18 11:54:10;;;;;;;24.07;11.00;;;;;;;2.15;39.58;100312.19;5023060;28;20025;-68
2021/01/18 11:56:36;;;;;;;22.73;11.30;;;;;;;2.19;38.81;100311.06;5023137;28;20097;-64
2021/01/18 11:59:01;;;;;;;24.40;10.60;;;;;;;2.03;39.36;100307.69;5023372;28;20101;-65
2021/01/18 12:01:27;;;;;;;26.50;13.27;;;;;;;2.19;40.17;100318.06;5023131;28;20044;-68
2021/01/18 12:03:52;;;;;;;21.20;10.73;;;;;;;2.21;39.61;100306.59;5023306;28;20037;-68
2021/01/18 12:06:18;;;;;;;22.27;11.77;;;;;;;2.23;39.25;100311.72;5023119;28;20034;-64
2021/01/18 12:08:43;;;;;;;18.53;10.07;;;;;;;2.14;38.00;100299.22;5023256;28;20049;-65
2021/01/18 12:11:08;;;;;;;19.30;8.97;;;;;;;2.10;38.00;100303.81;5022869;28;20093;-65
2021/01/18 12:13:34;;;;;;;19.10;8.43;;;;;;;2.08;38.34;100307.41;5023264;28;20049;-68
2021/01/18 12:15:59;;;;;;;26.23;12.10;;;;;;;2.09;39.54;100309.13;5022728;28;20025;-65
2021/01/18 12:18:25;;;;;;;22.43;11.17;;;;;;;2.10;39.06;100308.19;5022809;28;20105;-65
2021/01/18 12:20:50;;;;;;;21.97;10.33;;;;;;;2.16;38.84;100305.19;5022739;28;20094;-68
2021/01/18 12:23:18;;;;;;;21.70;10.23;;;;;;;2.17;37.84;100291.22;5022992;28;20038;-65
2021/01/18 12:25:44;;;;;;;23.10;10.33;;;;;;;2.06;39.00;100306.66;5022918;28;20026;-68
2021/01/18 12:28:09;;;;;;;25.00;10.73;;;;;;;2.01;39.81;100309.56;5023087;28;20251;-68
2021/01/18 12:30:35;;;;;;;22.07;10.60;;;;;;;2.02;39.68;100311.25;5022794;28;20061;-68
2021/01/18 12:33:00;;;;;;;22.10;10.13;;;;;;;2.06;39.50;100306.66;5022891;28;20235;-64
2021/01/18 12:35:26;;;;;;;24.00;10.47;;;;;;;2.19;39.10;100307.63;5022753;28;20044;-69
2021/01/18 12:37:51;;;;;;;22.83;10.63;;;;;;;2.21;39.22;100309.22;5022831;28;20096;-64
2021/01/18 12:40:17;;;;;;;24.00;11.97;;;;;;;2.22;39.62;100304.81;5022617;28;20026;-68
2021/01/18 12:42:47;;;;;;;22.40;11.40;;;;;;;2.37;40.23;100308.25;5022717;28;20026;-68
2021/01/18 12:45:15;;;;;;;25.17;12.37;;;;;;;2.25;39.99;100307.25;5022515;28;20328;-65
2021/01/18 12:47:41;;;;;;;24.97;11.50;;;;;;;2.18;39.45;100300.72;5022704;28;20379;-68
2021/01/18 12:50:08;;;;;;;26.63;11.77;;;;;;;2.29;39.55;100313.97;5022440;28;20053;-65
2021/01/18 12:52:33;;;;;;;30.73;12.33;;;;;;;2.21;40.36;100316.22;5022489;28;20025;-68
2021/01/18 12:54:59;;;;;;;27.37;12.20;;;;;;;2.26;40.14;100322.00;5022415;28;20048;-68
2021/01/18 12:57:24;;;;;;;25.77;12.17;;;;;;;2.41;39.70;100315.81;5022864;28;20085;-68
2021/01/18 12:59:50;;;;;;;27.23;13.37;;;;;;;2.23;39.83;100316.94;5022947;28;20311;-68
2021/01/18 13:02:15;;;;;;;30.10;11.90;;;;;;;2.29;39.78;100319.19;5022620;28;20037;-64
2021/01/18 13:04:41;;;;;;;25.40;11.70;;;;;;;2.23;39.06;100314.34;5023041;28;20045;-65
2021/01/18 13:07:07;;;;;;;26.30;12.07;;;;;;;2.14;40.31;100312.28;5026499;28;20219;-68
2021/01/18 13:09:32;;;;;;;23.20;11.23;;;;;;;2.28;39.90;100314.06;5026349;28;20238;-68
2021/01/18 13:11:58;;;;;;;23.83;11.73;;;;;;;2.23;39.25;100306.50;5025071;28;20038;-65
2021/01/18 13:14:23;;;;;;;25.43;11.87;;;;;;;2.19;40.08;100316.31;5026246;28;20097;-64
2021/01/18 13:16:54;;;;;;;26.13;12.07;;;;;;;2.26;40.16;100306.31;5025963;28;20026;-64
2021/01/18 13:19:20;;;;;;;35.87;15.20;;;;;;;2.22;40.99;100305.66;5025719;28;20223;-65
2021/01/18 13:21:50;;;;;;;44.50;15.63;;;;;;;2.20;41.57;100304.91;5026406;28;20220;-63
2021/01/18 13:24:15;;;;;;;27.50;14.57;;;;;;;2.38;40.66;100316.00;5026111;28;20042;-62
2021/01/18 13:26:41;;;;;;;27.40;11.70;;;;;;;2.10;40.37;100309.03;5025816;28;20332;-62
2021/01/18 13:29:06;;;;;;;22.63;9.80;;;;;;;2.17;38.68;100306.88;5025998;28;20236;-66
2021/01/18 13:31:39;;;;;;;25.93;9.53;;;;;;;2.16;38.73;100311.25;5026057;28;20040;-66
2021/01/18 13:34:05;;;;;;;24.60;13.20;;;;;;;2.10;40.56;100308.19;5026130;28;20267;-62
2021/01/18 13:36:31;;;;;;;27.87;12.27;;;;;;;2.24;40.87;100305.56;5025629;28;20037;-62
2021/01/18 13:38:57;;;;;;;24.73;10.90;;;;;;;2.27;40.03;100304.53;5025896;28;20041;-66
2021/01/18 13:41:23;;;;;;;21.43;9.30;;;;;;;2.13;38.95;100311.47;5025754;28;20026;-65
2021/01/18 13:43:49;;;;;;;26.27;10.37;;;;;;;2.14;38.57;100310.53;5025783;28;20247;-66
2021/01/18 13:46:17;;;;;;;24.70;10.67;;;;;;;2.19;38.45;100318.91;5025719;28;20034;-65
2021/01/18 13:48:44;;;;;;;18.80;9.77;;;;;;;2.15;38.55;100327.03;5025703;28;20033;-64
2021/01/18 13:51:13;;;;;;;19.03;10.20;;;;;;;2.22;38.91;100321.34;5025221;28;20037;-62
2021/01/18 13:53:39;;;;;;;22.87;10.30;;;;;;;2.44;38.16;100317.38;5025663;28;20038;-62
2021/01/18 13:56:05;;;;;;;19.33;10.13;;;;;;;2.48;37.66;100318.88;5025260;28;20022;-66
2021/01/18 13:58:30;;;;;;;20.87;9.23;;;;;;;2.23;38.01;100324.78;5025430;28;20034;-66
2021/01/18 14:00:56;;;;;;;23.27;11.43;;;;;;;2.41;37.88;100323.66;5025206;28;20126;-62
2021/01/18 14:03:21;;;;;;;23.10;10.20;;;;;;;2.28;38.10;100321.91;5025523;28;20273;-65
2021/01/18 14:05:47;;;;;;;20.93;9.37;;;;;;;2.31;37.66;100325.16;5025205;28;20355;-66
2021/01/18 14:08:12;;;;;;;20.67;9.37;;;;;;;2.26;37.60;100331.59;5025035;28;20037;-62
2021/01/18 14:10:38;;;;;;;18.63;9.30;;;;;;;2.20;38.17;100327.59;5024927;28;20034;-62
2021/01/18 14:13:03;;;;;;;21.67;9.50;;;;;;;2.02;38.25;100321.69;5025101;28;20101;-66
2021/01/18 14:15:29;;;;;;;26.30;9.13;;;;;;;2.08;37.96;100321.34;5025070;28;20301;-66
2021/01/18 14:17:54;;;;;;;16.03;8.23;;;;;;;2.20;37.71;100319.75;5023631;28;20037;-63
2021/01/18 14:20:20;;;;;;;22.73;10.17;;;;;;;2.05;37.42;100328.50;5024715;28;20316;-62
2021/01/18 14:22:45;;;;;;;16.47;7.67;;;;;;;2.20;37.62;100327.59;5024699;28;20259;-62
2021/01/18 14:25:11;;;;;;;31.50;8.37;;;;;;;2.35;37.68;100318.81;5024872;28;20036;-66
2021/01/18 14:27:42;;;;;;;20.53;8.40;;;;;;;2.26;38.00;100321.16;5024744;28;20343;-65
2021/01/18 14:30:08;;;;;;;22.10;8.57;;;;;;;2.15;38.63;100313.97;5024814;28;20317;-62
2021/01/18 14:32:33;;;;;;;19.77;8.30;;;;;;;2.17;38.69;100319.94;5024982;28;20308;-63
2021/01/18 14:34:58;;;;;;;23.00;9.20;;;;;;;2.26;38.60;100329.81;5024882;28;20096;-66
2021/01/18 14:37:24;;;;;;;26.83;9.40;;;;;;;2.13;38.91;100328.91;5024632;28;20034;-66
2021/01/18 14:39:49;;;;;;;19.07;9.20;;;;;;;2.24;38.59;100329.91;5024857;28;20102;-62
2021/01/18 14:42:14;;;;;;;18.20;8.40;;;;;;;2.02;38.96;100324.31;5024764;28;20351;-65
2021/01/18 14:44:40;;;;;;;18.77;8.37;;;;;;;1.96;39.32;100335.13;5024730;28;20347;-66
2021/01/18 14:47:08;;;;;;;27.90;9.20;;;;;;;1.75;39.51;100328.59;5024441;28;20048;-62
2021/01/18 14:49:34;;;;;;;19.83;7.83;;;;;;;1.72;40.12;100326.16;5024447;28;20038;-66
2021/01/18 14:52:00;;;;;;;24.30;9.30;;;;;;;2.03;39.75;100336.44;5024347;28;20105;-66
2021/01/18 14:54:25;;;;;;;30.93;12.67;;;;;;;1.91;39.99;100329.34;5024419;28;20099;-62
2021/01/18 14:56:51;;;;;;;31.63;12.90;;;;;;;1.88;40.45;100335.59;5024186;28;20029;-66
2021/01/18 14:59:16;;;;;;;34.33;13.07;;;;;;;1.81;40.38;100329.06;5024462;28;20048;-68
2021/01/18 15:01:44;;;;;;;33.27;13.83;;;;;;;2.02;40.31;100342.59;5024079;28;20038;-64
2021/01/18 15:04:10;;;;;;;30.63;13.43;;;;;;;2.07;40.59;100339.69;5024297;28;20041;-68
2021/01/18 15:06:36;;;;;;;34.00;14.27;;;;;;;2.07;40.68;100342.31;5023971;28;20030;-65
2021/01/18 15:09:05;;;;;;;36.57;14.33;;;;;;;1.95;41.19;100345.66;5024204;28;20092;-64
2021/01/18 15:11:32;;;;;;;36.53;12.90;;;;;;;1.54;41.14;100343.75;5023937;28;20248;-65
2021/01/18 15:13:58;;;;;;;32.67;12.20;;;;;;;1.75;41.53;100347.69;5024126;28;20315;-68
2021/01/18 15:16:25;;;;;;;31.10;10.70;;;;;;;1.56;41.42;100354.94;5023714;28;20033;-68
2021/01/18 15:18:50;;;;;;;30.23;10.57;;;;;;;1.50;42.29;100360.53;5023750;28;20056;-65
2021/01/18 15:21:16;;;;;;;25.40;10.23;;;;;;;1.41;42.66;100367.13;5023825;28;20029;-68
2021/01/18 15:23:41;;;;;;;22.20;9.80;;;;;;;1.40;42.87;100369.81;5023965;28;20088;-69
2021/01/18 15:26:07;;;;;;;23.53;10.03;;;;;;;1.26;42.76;100365.38;5022439;28;20025;-65
2021/01/18 15:28:33;;;;;;;24.47;10.40;;;;;;;1.25;43.24;100374.16;5023189;28;20049;-65
2021/01/18 15:30:59;;;;;;;25.53;11.00;;;;;;;1.08;43.72;100377.72;5023564;28;20261;-68
2021/01/18 15:33:24;;;;;;;27.93;12.03;;;;;;;1.18;44.02;100381.47;5023739;28;20312;-68
2021/01/18 15:35:54;;;;;;;31.50;12.37;;;;;;;1.14;43.87;100385.19;5023392;28;20033;-64
2021/01/18 15:38:22;;;;;;;27.80;11.57;;;;;;;1.00;44.31;100382.47;5023678;28;20038;-68
2021/01/18 15:40:48;;;;;;;27.47;11.33;;;;;;;0.86;44.04;100392.84;5022113;28;20045;-68
2021/01/18 15:43:13;;;;;;;24.40;10.50;;;;;;;0.64;44.11;100386.19;5023524;28;20042;-64
2021/01/18 15:45:39;;;;;;;27.57;11.80;;;;;;;0.45;43.95;100390.72;5023242;28;20338;-64
2021/01/18 15:48:05;;;;;;;29.33;13.10;;;;;;;0.54;43.51;100387.63;5023395;28;20064;-68
2021/01/18 15:50:30;;;;;;;26.33;11.40;;;;;;;0.48;42.85;100387.97;5023179;28;20220;-64
2021/01/18 15:52:55;;;;;;;24.43;11.33;;;;;;;0.54;42.70;100395.44;5023207;28;20264;-65
2021/01/18 15:55:21;;;;;;;25.10;11.87;;;;;;;0.45;43.41;100392.50;5023398;28;20316;-68
2021/01/18 15:57:46;;;;;;;31.37;10.90;;;;;;;0.44;43.33;100396.84;5022058;28;20227;-65
2021/01/18 16:00:13;;;;;;;25.87;10.87;;;;;;;0.36;43.39;100393.81;5023072;28;20092;-68
2021/01/18 16:02:38;;;;;;;29.03;11.43;;;;;;;0.38;43.36;100391.97;5023121;28;20033;-65
2021/01/18 16:05:14;;;;;;;29.67;10.97;;;;;;;0.30;43.83;100389.78;5023051;28;20067;-68
2021/01/18 16:07:43;;;;;;;26.67;10.03;;;;;;;0.43;43.33;100391.72;5023106;28;20030;-66
2021/01/18 16:10:11;;;;;;;21.63;9.93;;;;;;;0.22;44.43;100398.91;5022842;28;20037;-68
2021/01/18 16:12:41;;;;;;;33.90;11.73;;;;;;;0.37;44.13;100399.88;5022918;28;20075;-65
2021/01/18 16:15:09;;;;;;;26.63;10.57;;;;;;;0.36;44.13;100398.19;5023086;28;20057;-68
2021/01/18 16:17:34;;;;;;;22.27;11.27;;;;;;;0.40;44.01;100392.75;5022797;28;20351;-65
2021/01/18 16:20:00;;;;;;;31.53;11.33;;;;;;;0.36;44.58;100400.78;5022565;28;20034;-68
2021/01/18 16:22:25;;;;;;;31.53;13.00;;;;;;;0.23;45.12;100406.66;5022913;28;20033;-64
2021/01/18 16:24:51;;;;;;;31.77;13.17;;;;;;;0.08;45.60;100402.25;5023140;28;20042;-64
2021/01/18 16:27:17;;;;;;;28.13;12.80;;;;;;;0.19;45.67;100412.09;5022872;28;20196;-68
2021/01/18 16:29:43;;;;;;;33.77;14.87;;;;;;;0.20;45.63;100400.75;5023186;28;20067;-68
2021/01/18 16:32:09;;;;;;;26.87;13.20;;;;;;;0.15;45.55;100414.03;5022915;28;20208;-65
2021/01/18 16:34:37;;;;;;;24.87;11.77;;;;;;;0.12;45.75;100410.75;5022565;28;20033;-68
2021/01/18 16:37:06;;;;;;;29.30;12.40;;;;;;;0.02;46.33;100417.34;5021722;28;20029;-65
2021/01/18 16:39:37;;;;;;;27.57;12.23;;;;;;;-0.13;46.63;100411.97;5022988;28;20224;-65
2021/01/18 16:42:03;;;;;;;31.33;11.70;;;;;;;0.07;46.47;100403.16;5027009;28;20307;-64
2021/01/18 16:44:29;;;;;;;30.40;13.47;;;;;;;-0.08;46.59;100412.56;5027016;28;20049;-67
2021/01/18 16:47:05;;;;;;;31.57;12.97;;;;;;;-0.29;47.13;100413.66;5026606;28;20029;-66
2021/01/18 16:49:34;;;;;;;36.97;15.23;;;;;;;-0.24;47.06;100419.47;5026736;28;20041;-68
2021/01/18 16:52:01;;;;;;;40.80;15.60;;;;;;;-0.20;46.89;100427.97;5026536;28;20034;-64
2021/01/18 16:54:26;;;;;;;35.93;14.07;;;;;;;-0.22;47.29;100433.25;5026580;28;20045;-64
2021/01/18 16:56:56;;;;;;;31.20;14.13;;;;;;;-0.20;47.03;100441.00;5026552;28;20018;-68
2021/01/18 16:59:21;;;;;;;30.20;12.67;;;;;;;-0.12;46.55;100442.28;5026650;28;20101;-68
2021/01/18 17:01:47;;;;;;;27.33;12.40;;;;;;;-0.20;47.44;100448.78;5026473;28;20342;-68
2021/01/18 17:04:13;;;;;;;33.93;13.50;;;;;;;-0.27;47.39;100448.25;5026634;28;20248;-66
2021/01/18 17:06:39;;;;;;;36.90;13.47;;;;;;;-0.35;47.70;100448.63;5026775;28;20060;-68
2021/01/18 17:09:04;;;;;;;32.00;13.87;;;;;;;-0.39;47.55;100441.06;5025991;28;20104;-68
2021/01/18 17:11:30;;;;;;;28.80;13.13;;;;;;;-0.24;47.60;100458.53;5026161;28;20056;-68
2021/01/18 17:13:55;;;;;;;29.80;12.97;;;;;;;-0.29;47.82;100457.06;5025124;28;20097;-65
2021/01/18 17:16:21;;;;;;;27.93;12.23;;;;;;;-0.44;48.00;100461.25;5025897;28;20040;-64
2021/01/18 17:18:48;;;;;;;25.23;12.07;;;;;;;-0.33;48.00;100465.03;5025936;28;20056;-68
2021/01/18 17:21:14;;;;;;;42.07;15.60;;;;;;;-0.43;48.07;100457.75;5025911;28;20030;-68
2021/01/18 17:23:45;;;;;;;35.20;14.43;;;;;;;-0.47;48.01;100462.25;5026100;28;20042;-62
2021/01/18 17:26:18;;;;;;;26.50;12.40;;;;;;;-0.72;48.60;100454.78;5025784;28;20040;-62
2021/01/18 17:28:44;;;;;;;;;;;;;;;-0.71;48.69;100463.44;5026676;28;20033;-63
2021/01/18 17:31:09;;;;;;;28.93;12.40;;;;;;;-0.66;48.71;100462.31;5025763;28;19917;-62
2021/01/18 17:33:35;;;;;;;29.03;12.60;;;;;;;-0.61;48.14;100466.44;5025990;28;20053;-63
2021/01/18 17:36:00;;;;;;;28.93;12.63;;;;;;;-0.73;48.82;100458.31;5025652;28;20021;-66
2021/01/18 17:38:25;;;;;;;34.63;13.77;;;;;;;-0.75;48.79;100454.09;5025897;28;20342;-66
2021/01/18 17:40:51;;;;;;;24.43;11.17;;;;;;;-0.56;48.52;100459.25;5025491;28;20308;-66
2021/01/18 17:43:16;;;;;;;26.60;11.77;;;;;;;-0.59;48.31;100454.22;5025776;28;20255;-65
2021/01/18 17:45:42;;;;;;;27.40;11.63;;;;;;;-0.71;48.62;100466.03;5025400;28;20025;-62
2021/01/18 17:48:08;;;;;;;30.40;12.50;;;;;;;-0.60;48.74;100465.53;5025526;28;20259;-62
2021/01/18 17:50:33;;;;;;;30.03;11.47;;;;;;;-0.53;48.42;100469.50;5025117;28;20072;-66
2021/01/18 17:52:59;;;;;;;25.23;11.40;;;;;;;-0.54;47.83;100468.66;5025334;28;20080;-62
2021/01/18 17:55:24;;;;;;;24.73;10.73;;;;;;;-0.68;48.40;100469.34;5025207;28;20029;-62
2021/01/18 17:57:49;;;;;;;28.67;12.10;;;;;;;-0.77;48.98;100476.72;5025432;28;20089;-66
2021/01/18 18:00:17;;;;;;;29.10;12.33;;;;;;;-0.80;49.38;100464.72;5025133;28;20030;-66
2021/01/18 18:02:43;;;;;;;27.43;11.77;;;;;;;-0.82;49.53;100470.91;5025290;28;20022;-62
2021/01/18 18:05:09;;;;;;;30.10;12.63;;;;;;;-0.60;48.52;100473.31;5025238;28;20076;-62
2021/01/18 18:07:36;;;;;;;26.83;12.30;;;;;;;-0.58;48.19;100468.91;5025096;28;20022;-62
2021/01/18 18:10:03;;;;;;;25.83;12.43;;;;;;;-0.62;47.88;100465.59;5025168;28;20029;-62
2021/01/18 18:12:33;;;;;;;25.40;11.93;;;;;;;-0.76;48.13;100466.25;5025305;28;20018;-62
2021/01/18 18:14:59;;;;;;;29.93;12.10;;;;;;;-0.86;48.34;100470.22;5025180;28;20068;-62
2021/01/18 18:17:28;;;;;;;23.27;11.13;;;;;;;-0.81;48.34;100464.78;5024967;28;20271;-66
2021/01/18 18:19:54;;;;;;;23.63;10.57;;;;;;;-0.78;47.88;100459.44;5024579;28;20042;-62
2021/01/18 18:22:20;;;;;;;28.03;11.50;;;;;;;-0.73;47.36;100462.66;5025112;28;20274;-62
2021/01/18 18:24:46;;;;;;;20.67;9.90;;;;;;;-0.88;48.04;100459.03;5025050;28;20034;-62
2021/01/18 18:27:12;;;;;;;23.13;10.30;;;;;;;-0.85;47.53;100460.66;5024877;28;20029;-62
2021/01/18 18:29:38;;;;;;;24.60;10.10;;;;;;;-0.88;47.67;100466.00;5025071;28;20053;-62
2021/01/18 18:32:05;;;;;;;23.83;10.67;;;;;;;-0.97;47.30;100464.66;5024801;28;20227;-65
2021/01/18 18:34:30;;;;;;;26.03;9.83;;;;;;;-1.08;47.89;100475.53;5023624;28;20312;-62
2021/01/18 18:37:02;;;;;;;23.63;10.43;;;;;;;-1.16;48.04;100475.03;5024700;28;20036;-66
2021/01/18 18:39:28;;;;;;;27.20;11.03;;;;;;;-1.06;48.26;100475.47;5024806;28;20100;-65
2021/01/18 18:41:59;;;;;;;23.63;11.07;;;;;;;-1.19;48.58;100479.53;5024505;28;20105;-62
2021/01/18 18:44:26;;;;;;;25.57;11.97;;;;;;;-1.11;48.72;100483.47;5024589;28;20034;-62
2021/01/18 18:46:53;;;;;;;30.47;13.80;;;;;;;-0.94;48.32;100490.53;5024388;28;20342;-62
2021/01/18 18:49:19;;;;;;;35.67;14.30;;;;;;;-0.93;47.94;100493.97;5024542;28;20259;-66
2021/01/18 18:51:46;;;;;;;35.20;14.60;;;;;;;-0.70;47.43;100499.78;5024237;28;20034;-65
2021/01/18 18:54:12;;;;;;;36.70;16.20;;;;;;;-0.81;47.67;100493.38;5024402;28;20104;-62
2021/01/18 18:56:45;;;;;;;39.07;15.80;;;;;;;-0.85;47.66;100502.25;5024394;28;20029;-62
2021/01/18 18:59:12;;;;;;;32.87;14.60;;;;;;;-0.75;47.67;100504.34;5024455;28;20041;-66
2021/01/18 19:01:39;;;;;;;36.43;14.50;;;;;;;-0.75;47.74;100506.09;5024201;28;20241;-66
2021/01/18 19:04:05;;;;;;;27.00;12.53;;;;;;;-0.59;47.25;100514.03;5023502;28;20049;-62
2021/01/18 19:06:32;;;;;;;29.63;14.00;;;;;;;-0.83;47.90;100510.81;5024313;28;20025;-62
2021/01/18 19:08:57;;;;;;;36.70;14.43;;;;;;;-0.97;48.44;100494.09;5023917;28;20081;-62
2021/01/18 19:11:24;;;;;;;29.63;13.53;;;;;;;-1.13;48.87;100513.03;5024126;28;20238;-62
2021/01/18 19:13:50;;;;;;;27.67;13.87;;;;;;;-0.92;48.28;100504.28;5024202;28;20038;-62
2021/01/18 19:16:16;;;;;;;33.27;14.37;;;;;;;-0.95;48.17;100517.44;5023724;28;20025;-66
2021/01/18 19:18:42;;;;;;;36.53;15.60;;;;;;;-1.25;48.57;100526.59;5023708;28;20057;-62
2021/01/18 19:21:07;;;;;;;38.27;16.07;;;;;;;-1.25;49.52;100537.81;5023597;28;20033;-62
2021/01/18 19:23:34;;;;;;;35.13;16.20;;;;;;;-1.33;49.28;100545.13;5023768;28;20030;-62
2021/01/18 19:26:00;;;;;;;38.13;18.17;;;;;;;-1.42;49.39;100538.56;5023518;28;20021;-62
2021/01/18 19:28:25;;;;;;;45.87;21.63;;;;;;;-1.48;50.03;100532.78;5023933;28;20045;-62
2021/01/18 19:30:51;;;;;;;36.33;17.10;;;;;;;-1.39;49.62;100540.19;5023574;28;20223;-65
2021/01/18 19:33:17;;;;;;;31.57;14.80;;;;;;;-1.23;49.12;100533.41;5023716;28;20258;-62
2021/01/18 19:35:43;;;;;;;38.47;15.00;;;;;;;-1.23;49.31;100529.97;5023575;28;20056;-62
2021/01/18 19:38:08;;;;;;;41.43;15.87;;;;;;;-1.17;48.84;100537.47;5023625;28;20049;-66